sensor_id;sensor_type;location;lat;lon;timestamp;P1;durP1;ratioP1;P2;durP2;ratioP2
9836;SDS011;4957;51.412;6.724;2022-11-18T00:02:10;7.40;;;2.70;;
9836;SDS011;4957;51.412;6.724;2022-11-18T00:04:36;4.57;;;2.50;;
9836;SDS011;4957;51.412;6.724;2022-11-18T00:07:01;6.87;;;2.60;;
9836;SDS011;4957;51.412;6.724;2022-11-18T00:09:27;10.57;;;2.63;;
9836;SDS011;4957;51.412;6.724;2022-11-18T00:11:52;8.80;;;2.70;;
9836;SDS011;4957;51.412;6.724;2022-11-18T00:14:36;10.37;;;2.93;;
9836;SDS011;4957;51.412;6.724;2022-11-18T00:17:03;4.87;;;2.40;;
9836;SDS011;4957;51.412;6.724;2022-11-18T00:19:31;4.30;;;2.67;;
9836;SDS011;4957;51.412;6.724;2022-11-18T00:21:59;7.07;;;2.53;;
9836;SDS011;4957;51.412;6.724;2022-11-18T00:24:25;6.47;;;2.87;;
9836;SDS011;4957;51.412;6.724;2022-11-18T00:26:51;9.17;;;2.63;;
9836;SDS011;4957;51.412;6.724;2022-11-18T00:29:17;5.83;;;2.27;;
9836;SDS011;4957;51.412;6.724;2022-11-18T00:31:43;8.63;;;2.00;;
9836;SDS011;4957;51.412;6.724;2022-11-18T00:34:13;7.83;;;2.30;;
9836;SDS011;4957;51.412;6.724;2022-11-18T00:36:41;8.43;;;2.40;;
9836;SDS011;4957;51.412;6.724;2022-11-18T00:39:09;5.33;;;2.30;;
9836;SDS011;4957;51.412;6.724;2022-11-18T00:41:35;8.43;;;2.47;;
9836;SDS011;4957;51.412;6.724;2022-11-18T00:44:19;5.77;;;1.83;;
9836;SDS011;4957;51.412;6.724;2022-11-18T00:46:45;3.90;;;1.93;;
9836;SDS011;4957;51.412;6.724;2022-11-18T00:49:10;6.33;;;2.37;;
9836;SDS011;4957;51.412;6.724;2022-11-18T00:51:36;11.17;;;1.90;;
9836;SDS011;4957;51.412;6.724;2022-11-18T00:54:02;10.10;;;2.33;;
9836;SDS011;4957;51.412;6.724;2022-11-18T00:56:27;7.00;;;1.90;;
9836;SDS011;4957;51.412;6.724;2022-11-18T00:58:53;4.53;;;2.10;;
9836;SDS011;4957;51.412;6.724;2022-11-18T01:01:19;11.93;;;1.97;;
9836;SDS011;4957;51.412;6.724;2022-11-18T01:03:45;10.50;;;2.10;;
9836;SDS011;4957;51.412;6.724;2022-11-18T01:06:11;7.57;;;1.90;;
9836;SDS011;4957;51.412;6.724;2022-11-18T01:08:37;6.23;;;2.13;;
9836;SDS011;4957;51.412;6.724;2022-11-18T01:11:02;5.43;;;2.17;;
9836;SDS011;4957;51.412;6.724;2022-11-18T01:13:50;4.07;;;2.20;;
9836;SDS011;4957;51.412;6.724;2022-11-18T01:16:17;4.17;;;2.57;;
9836;SDS011;4957;51.412;6.724;2022-11-18T01:18:44;4.47;;;2.57;;
9836;SDS011;4957;51.412;6.724;2022-11-18T01:21:10;3.13;;;2.30;;
9836;SDS011;4957;51.412;6.724;2022-11-18T01:23:36;10.73;;;2.80;;
9836;SDS011;4957;51.412;6.724;2022-11-18T01:26:05;5.53;;;2.40;;
9836;SDS011;4957;51.412;6.724;2022-11-18T01:28:33;12.47;;;2.43;;
9836;SDS011;4957;51.412;6.724;2022-11-18T01:31:03;6.77;;;2.40;;
9836;SDS011;4957;51.412;6.724;2022-11-18T01:33:30;8.07;;;2.40;;
9836;SDS011;4957;51.412;6.724;2022-11-18T01:35:56;12.77;;;3.00;;
9836;SDS011;4957;51.412;6.724;2022-11-18T01:38:21;6.30;;;2.20;;
9836;SDS011;4957;51.412;6.724;2022-11-18T01:40:47;6.00;;;2.77;;
9836;SDS011;4957;51.412;6.724;2022-11-18T01:43:14;6.93;;;2.30;;
9836;SDS011;4957;51.412;6.724;2022-11-18T01:45:41;7.03;;;2.90;;
9836;SDS011;4957;51.412;6.724;2022-11-18T01:48:25;9.60;;;2.73;;
9836;SDS011;4957;51.412;6.724;2022-11-18T01:50:55;6.40;;;2.53;;
9836;SDS011;4957;51.412;6.724;2022-11-18T01:53:27;7.63;;;3.00;;
9836;SDS011;4957;51.412;6.724;2022-11-18T01:55:56;6.30;;;2.60;;
9836;SDS011;4957;51.412;6.724;2022-11-18T01:58:26;8.93;;;3.20;;
9836;SDS011;4957;51.412;6.724;2022-11-18T02:00:56;7.80;;;2.70;;
9836;SDS011;4957;51.412;6.724;2022-11-18T02:03:23;7.97;;;2.53;;
9836;SDS011;4957;51.412;6.724;2022-11-18T02:05:50;11.50;;;3.13;;
9836;SDS011;4957;51.412;6.724;2022-11-18T02:08:18;7.90;;;2.70;;
9836;SDS011;4957;51.412;6.724;2022-11-18T02:10:45;7.23;;;2.80;;
9836;SDS011;4957;51.412;6.724;2022-11-18T02:13:10;15.23;;;3.33;;
9836;SDS011;4957;51.412;6.724;2022-11-18T02:21:02;10.33;;;3.20;;
9836;SDS011;4957;51.412;6.724;2022-11-18T02:29:25;7.63;;;2.43;;
9836;SDS011;4957;51.412;6.724;2022-11-18T02:31:59;8.47;;;2.50;;
9836;SDS011;4957;51.412;6.724;2022-11-18T02:40:12;8.07;;;2.57;;
9836;SDS011;4957;51.412;6.724;2022-11-18T02:42:49;10.40;;;2.67;;
9836;SDS011;4957;51.412;6.724;2022-11-18T02:45:20;9.07;;;2.83;;
9836;SDS011;4957;51.412;6.724;2022-11-18T02:47:47;5.30;;;3.00;;
9836;SDS011;4957;51.412;6.724;2022-11-18T02:50:15;8.80;;;2.87;;
9836;SDS011;4957;51.412;6.724;2022-11-18T02:52:45;7.23;;;3.23;;
9836;SDS011;4957;51.412;6.724;2022-11-18T02:55:15;9.20;;;3.37;;
9836;SDS011;4957;51.412;6.724;2022-11-18T02:57:42;5.93;;;3.27;;
9836;SDS011;4957;51.412;6.724;2022-11-18T03:00:09;9.30;;;3.17;;
9836;SDS011;4957;51.412;6.724;2022-11-18T03:02:39;10.90;;;3.17;;
9836;SDS011;4957;51.412;6.724;2022-11-18T03:05:06;3.23;;;2.27;;
9836;SDS011;4957;51.412;6.724;2022-11-18T03:07:43;8.20;;;2.60;;
9836;SDS011;4957;51.412;6.724;2022-11-18T03:10:15;9.40;;;2.83;;
9836;SDS011;4957;51.412;6.724;2022-11-18T03:12:47;5.73;;;2.50;;
9836;SDS011;4957;51.412;6.724;2022-11-18T03:15:21;10.83;;;3.07;;
9836;SDS011;4957;51.412;6.724;2022-11-18T03:18:11;8.33;;;2.80;;
9836;SDS011;4957;51.412;6.724;2022-11-18T03:20:50;6.30;;;2.70;;
9836;SDS011;4957;51.412;6.724;2022-11-18T03:23:26;6.83;;;3.20;;
9836;SDS011;4957;51.412;6.724;2022-11-18T03:26:01;8.37;;;3.47;;
9836;SDS011;4957;51.412;6.724;2022-11-18T03:29:09;10.27;;;3.40;;
9836;SDS011;4957;51.412;6.724;2022-11-18T03:31:33;6.97;;;2.50;;
9836;SDS011;4957;51.412;6.724;2022-11-18T03:34:14;12.90;;;3.73;;
9836;SDS011;4957;51.412;6.724;2022-11-18T03:36:51;9.17;;;3.27;;
9836;SDS011;4957;51.412;6.724;2022-11-18T03:39:21;7.53;;;3.27;;
9836;SDS011;4957;51.412;6.724;2022-11-18T03:41:50;8.57;;;3.03;;
9836;SDS011;4957;51.412;6.724;2022-11-18T03:44:49;7.77;;;3.03;;
9836;SDS011;4957;51.412;6.724;2022-11-18T03:47:28;11.57;;;3.33;;
9836;SDS011;4957;51.412;6.724;2022-11-18T03:50:21;6.10;;;3.30;;
9836;SDS011;4957;51.412;6.724;2022-11-18T03:52:51;12.90;;;3.47;;
9836;SDS011;4957;51.412;6.724;2022-11-18T03:55:19;11.20;;;3.53;;
9836;SDS011;4957;51.412;6.724;2022-11-18T04:00:41;13.63;;;3.83;;
9836;SDS011;4957;51.412;6.724;2022-11-18T04:03:11;7.00;;;3.57;;
9836;SDS011;4957;51.412;6.724;2022-11-18T04:05:38;7.80;;;3.43;;
9836;SDS011;4957;51.412;6.724;2022-11-18T04:08:08;13.83;;;3.40;;
9836;SDS011;4957;51.412;6.724;2022-11-18T04:10:49;6.67;;;3.40;;
9836;SDS011;4957;51.412;6.724;2022-11-18T04:13:59;11.20;;;3.70;;
9836;SDS011;4957;51.412;6.724;2022-11-18T04:16:25;8.23;;;3.27;;
9836;SDS011;4957;51.412;6.724;2022-11-18T04:18:51;11.80;;;3.77;;
9836;SDS011;4957;51.412;6.724;2022-11-18T04:21:16;11.80;;;3.80;;
9836;SDS011;4957;51.412;6.724;2022-11-18T04:23:42;10.73;;;3.40;;
9836;SDS011;4957;51.412;6.724;2022-11-18T04:26:08;7.97;;;3.30;;
9836;SDS011;4957;51.412;6.724;2022-11-18T04:28:35;12.97;;;4.00;;
9836;SDS011;4957;51.412;6.724;2022-11-18T04:31:01;7.20;;;4.10;;
9836;SDS011;4957;51.412;6.724;2022-11-18T04:33:27;9.77;;;4.67;;
9836;SDS011;4957;51.412;6.724;2022-11-18T04:35:52;10.30;;;4.13;;
9836;SDS011;4957;51.412;6.724;2022-11-18T04:38:18;11.20;;;4.60;;
9836;SDS011;4957;51.412;6.724;2022-11-18T04:40:44;11.47;;;4.50;;
9836;SDS011;4957;51.412;6.724;2022-11-18T04:43:10;13.47;;;4.70;;
9836;SDS011;4957;51.412;6.724;2022-11-18T04:45:36;10.80;;;4.83;;
9836;SDS011;4957;51.412;6.724;2022-11-18T04:48:02;12.67;;;4.43;;
9836;SDS011;4957;51.412;6.724;2022-11-18T04:50:27;11.03;;;4.40;;
9836;SDS011;4957;51.412;6.724;2022-11-18T04:52:53;13.77;;;4.30;;
9836;SDS011;4957;51.412;6.724;2022-11-18T04:55:19;13.87;;;4.80;;
9836;SDS011;4957;51.412;6.724;2022-11-18T04:57:44;10.63;;;4.97;;
9836;SDS011;4957;51.412;6.724;2022-11-18T05:00:10;15.50;;;4.70;;
9836;SDS011;4957;51.412;6.724;2022-11-18T05:02:36;11.07;;;4.67;;
9836;SDS011;4957;51.412;6.724;2022-11-18T05:05:02;13.63;;;5.60;;
9836;SDS011;4957;51.412;6.724;2022-11-18T05:07:28;14.93;;;5.03;;
9836;SDS011;4957;51.412;6.724;2022-11-18T05:09:53;15.63;;;5.53;;
9836;SDS011;4957;51.412;6.724;2022-11-18T05:12:19;11.27;;;4.23;;
9836;SDS011;4957;51.412;6.724;2022-11-18T05:15:03;13.10;;;4.57;;
9836;SDS011;4957;51.412;6.724;2022-11-18T05:17:29;11.07;;;4.53;;
9836;SDS011;4957;51.412;6.724;2022-11-18T05:19:55;11.03;;;4.53;;
9836;SDS011;4957;51.412;6.724;2022-11-18T05:22:20;10.57;;;4.83;;
9836;SDS011;4957;51.412;6.724;2022-11-18T05:24:46;12.03;;;5.27;;
9836;SDS011;4957;51.412;6.724;2022-11-18T05:27:12;14.03;;;4.77;;
9836;SDS011;4957;51.412;6.724;2022-11-18T05:29:38;12.80;;;5.43;;
9836;SDS011;4957;51.412;6.724;2022-11-18T05:32:04;16.77;;;6.40;;
9836;SDS011;4957;51.412;6.724;2022-11-18T05:34:30;11.50;;;5.93;;
9836;SDS011;4957;51.412;6.724;2022-11-18T05:36:56;8.50;;;4.50;;
9836;SDS011;4957;51.412;6.724;2022-11-18T05:39:21;9.17;;;4.63;;
9836;SDS011;4957;51.412;6.724;2022-11-18T05:41:47;14.17;;;4.20;;
9836;SDS011;4957;51.412;6.724;2022-11-18T05:44:31;11.93;;;4.67;;
9836;SDS011;4957;51.412;6.724;2022-11-18T05:46:57;14.50;;;4.00;;
9836;SDS011;4957;51.412;6.724;2022-11-18T05:49:24;11.97;;;3.97;;
9836;SDS011;4957;51.412;6.724;2022-11-18T05:51:49;13.23;;;3.97;;
9836;SDS011;4957;51.412;6.724;2022-11-18T05:54:15;10.30;;;3.87;;
9836;SDS011;4957;51.412;6.724;2022-11-18T05:56:44;15.40;;;4.00;;
9836;SDS011;4957;51.412;6.724;2022-11-18T05:59:10;12.50;;;4.17;;
9836;SDS011;4957;51.412;6.724;2022-11-18T06:01:44;12.30;;;4.90;;
9836;SDS011;4957;51.412;6.724;2022-11-18T06:07:08;13.57;;;4.60;;
9836;SDS011;4957;51.412;6.724;2022-11-18T06:09:47;9.80;;;4.20;;
9836;SDS011;4957;51.412;6.724;2022-11-18T06:12:16;14.50;;;4.93;;
9836;SDS011;4957;51.412;6.724;2022-11-18T06:14:48;14.87;;;4.93;;
9836;SDS011;4957;51.412;6.724;2022-11-18T06:17:25;13.03;;;4.47;;
9836;SDS011;4957;51.412;6.724;2022-11-18T06:19:54;8.70;;;4.17;;
9836;SDS011;4957;51.412;6.724;2022-11-18T06:22:21;11.83;;;4.57;;
9836;SDS011;4957;51.412;6.724;2022-11-18T06:24:47;11.77;;;4.10;;
9836;SDS011;4957;51.412;6.724;2022-11-18T06:27:13;16.57;;;4.50;;
9836;SDS011;4957;51.412;6.724;2022-11-18T06:29:39;12.20;;;3.87;;
9836;SDS011;4957;51.412;6.724;2022-11-18T06:32:05;13.23;;;4.47;;
9836;SDS011;4957;51.412;6.724;2022-11-18T06:34:31;13.83;;;3.73;;
9836;SDS011;4957;51.412;6.724;2022-11-18T06:36:57;11.10;;;3.80;;
9836;SDS011;4957;51.412;6.724;2022-11-18T06:39:22;18.70;;;3.80;;
9836;SDS011;4957;51.412;6.724;2022-11-18T06:41:50;10.90;;;4.13;;
9836;SDS011;4957;51.412;6.724;2022-11-18T06:44:17;17.53;;;3.80;;
9836;SDS011;4957;51.412;6.724;2022-11-18T06:46:42;11.23;;;3.60;;
9836;SDS011;4957;51.412;6.724;2022-11-18T06:49:20;16.13;;;4.27;;
9836;SDS011;4957;51.412;6.724;2022-11-18T06:51:46;17.10;;;4.40;;
9836;SDS011;4957;51.412;6.724;2022-11-18T06:54:12;9.20;;;3.80;;
9836;SDS011;4957;51.412;6.724;2022-11-18T06:56:38;12.10;;;4.20;;
9836;SDS011;4957;51.412;6.724;2022-11-18T06:59:04;13.63;;;3.73;;
9836;SDS011;4957;51.412;6.724;2022-11-18T07:01:30;14.07;;;3.90;;
9836;SDS011;4957;51.412;6.724;2022-11-18T07:03:59;11.90;;;3.77;;
9836;SDS011;4957;51.412;6.724;2022-11-18T07:06:29;17.33;;;4.33;;
9836;SDS011;4957;51.412;6.724;2022-11-18T07:08:58;16.27;;;4.60;;
9836;SDS011;4957;51.412;6.724;2022-11-18T07:11:26;13.60;;;3.77;;
9836;SDS011;4957;51.412;6.724;2022-11-18T07:13:52;8.90;;;3.43;;
9836;SDS011;4957;51.412;6.724;2022-11-18T07:16:19;11.60;;;4.07;;
9836;SDS011;4957;51.412;6.724;2022-11-18T07:18:47;15.00;;;4.40;;
9836;SDS011;4957;51.412;6.724;2022-11-18T07:21:14;9.63;;;4.10;;
9836;SDS011;4957;51.412;6.724;2022-11-18T07:23:42;9.60;;;3.97;;
9836;SDS011;4957;51.412;6.724;2022-11-18T07:26:08;10.20;;;3.93;;
9836;SDS011;4957;51.412;6.724;2022-11-18T07:28:35;17.73;;;4.57;;
9836;SDS011;4957;51.412;6.724;2022-11-18T07:31:01;12.70;;;4.37;;
9836;SDS011;4957;51.412;6.724;2022-11-18T07:33:27;16.00;;;4.50;;
9836;SDS011;4957;51.412;6.724;2022-11-18T07:35:53;14.10;;;4.20;;
9836;SDS011;4957;51.412;6.724;2022-11-18T07:38:19;14.00;;;4.90;;
9836;SDS011;4957;51.412;6.724;2022-11-18T07:40:44;14.60;;;4.27;;
9836;SDS011;4957;51.412;6.724;2022-11-18T07:43:10;9.63;;;4.27;;
9836;SDS011;4957;51.412;6.724;2022-11-18T07:45:36;15.63;;;4.90;;
9836;SDS011;4957;51.412;6.724;2022-11-18T07:48:01;11.13;;;4.27;;
9836;SDS011;4957;51.412;6.724;2022-11-18T07:50:27;9.43;;;4.33;;
9836;SDS011;4957;51.412;6.724;2022-11-18T07:52:56;20.50;;;4.60;;
9836;SDS011;4957;51.412;6.724;2022-11-18T07:55:22;16.07;;;4.67;;
9836;SDS011;4957;51.412;6.724;2022-11-18T07:57:48;12.60;;;5.13;;
9836;SDS011;4957;51.412;6.724;2022-11-18T08:00:14;9.60;;;4.67;;
9836;SDS011;4957;51.412;6.724;2022-11-18T08:02:40;13.27;;;6.10;;
9836;SDS011;4957;51.412;6.724;2022-11-18T08:05:08;10.40;;;5.03;;
9836;SDS011;4957;51.412;6.724;2022-11-18T08:07:34;13.37;;;5.50;;
9836;SDS011;4957;51.412;6.724;2022-11-18T08:09:59;16.90;;;5.87;;
9836;SDS011;4957;51.412;6.724;2022-11-18T08:12:27;15.03;;;5.80;;
9836;SDS011;4957;51.412;6.724;2022-11-18T08:14:55;11.17;;;4.77;;
9836;SDS011;4957;51.412;6.724;2022-11-18T08:17:21;13.87;;;5.37;;
9836;SDS011;4957;51.412;6.724;2022-11-18T08:19:47;11.80;;;4.67;;
9836;SDS011;4957;51.412;6.724;2022-11-18T08:22:12;13.03;;;5.20;;
9836;SDS011;4957;51.412;6.724;2022-11-18T08:24:40;13.90;;;4.90;;
9836;SDS011;4957;51.412;6.724;2022-11-18T08:27:06;13.17;;;4.90;;
9836;SDS011;4957;51.412;6.724;2022-11-18T08:29:32;7.77;;;4.87;;
9836;SDS011;4957;51.412;6.724;2022-11-18T08:31:58;9.80;;;5.30;;
9836;SDS011;4957;51.412;6.724;2022-11-18T08:34:23;10.67;;;4.37;;
9836;SDS011;4957;51.412;6.724;2022-11-18T08:36:49;15.03;;;4.77;;
9836;SDS011;4957;51.412;6.724;2022-11-18T08:39:15;21.47;;;5.07;;
9836;SDS011;4957;51.412;6.724;2022-11-18T08:41:41;8.30;;;4.70;;
9836;SDS011;4957;51.412;6.724;2022-11-18T08:44:12;8.90;;;4.97;;
9836;SDS011;4957;51.412;6.724;2022-11-18T08:46:38;11.93;;;4.67;;
9836;SDS011;4957;51.412;6.724;2022-11-18T08:49:04;11.67;;;4.93;;
9836;SDS011;4957;51.412;6.724;2022-11-18T08:51:30;16.70;;;6.03;;
9836;SDS011;4957;51.412;6.724;2022-11-18T08:53:56;10.37;;;4.53;;
9836;SDS011;4957;51.412;6.724;2022-11-18T08:56:22;12.40;;;4.60;;
9836;SDS011;4957;51.412;6.724;2022-11-18T08:58:49;15.77;;;5.70;;
9836;SDS011;4957;51.412;6.724;2022-11-18T09:01:15;15.07;;;5.17;;
9836;SDS011;4957;51.412;6.724;2022-11-18T09:03:41;19.40;;;5.23;;
9836;SDS011;4957;51.412;6.724;2022-11-18T09:08:35;9.30;;;4.90;;
9836;SDS011;4957;51.412;6.724;2022-11-18T09:11:06;14.20;;;5.43;;
9836;SDS011;4957;51.412;6.724;2022-11-18T09:13:32;15.77;;;6.20;;
9836;SDS011;4957;51.412;6.724;2022-11-18T09:15:59;13.80;;;5.83;;
9836;SDS011;4957;51.412;6.724;2022-11-18T09:18:25;12.57;;;6.10;;
9836;SDS011;4957;51.412;6.724;2022-11-18T09:20:58;16.90;;;6.60;;
9836;SDS011;4957;51.412;6.724;2022-11-18T09:23:25;20.03;;;6.10;;
9836;SDS011;4957;51.412;6.724;2022-11-18T09:25:58;18.60;;;6.17;;
9836;SDS011;4957;51.412;6.724;2022-11-18T09:28:25;19.17;;;5.47;;
9836;SDS011;4957;51.412;6.724;2022-11-18T09:30:51;13.63;;;5.57;;
9836;SDS011;4957;51.412;6.724;2022-11-18T09:33:17;12.27;;;5.47;;
9836;SDS011;4957;51.412;6.724;2022-11-18T09:35:42;11.13;;;5.40;;
9836;SDS011;4957;51.412;6.724;2022-11-18T09:38:08;15.57;;;5.23;;
9836;SDS011;4957;51.412;6.724;2022-11-18T09:40:36;18.27;;;6.50;;
9836;SDS011;4957;51.412;6.724;2022-11-18T09:43:39;19.63;;;5.53;;
9836;SDS011;4957;51.412;6.724;2022-11-18T09:46:21;15.77;;;5.20;;
9836;SDS011;4957;51.412;6.724;2022-11-18T09:49:10;16.07;;;5.53;;
9836;SDS011;4957;51.412;6.724;2022-11-18T09:51:44;18.07;;;6.73;;
9836;SDS011;4957;51.412;6.724;2022-11-18T09:54:25;14.83;;;6.70;;
9836;SDS011;4957;51.412;6.724;2022-11-18T09:56:55;14.13;;;5.57;;
9836;SDS011;4957;51.412;6.724;2022-11-18T09:59:23;13.83;;;6.23;;
9836;SDS011;4957;51.412;6.724;2022-11-18T10:01:51;14.50;;;5.30;;
9836;SDS011;4957;51.412;6.724;2022-11-18T10:04:21;14.77;;;5.97;;
9836;SDS011;4957;51.412;6.724;2022-11-18T10:06:48;15.90;;;5.93;;
9836;SDS011;4957;51.412;6.724;2022-11-18T10:09:34;14.73;;;5.93;;
9836;SDS011;4957;51.412;6.724;2022-11-18T10:14:42;14.10;;;5.43;;
9836;SDS011;4957;51.412;6.724;2022-11-18T10:20:41;14.97;;;7.00;;
9836;SDS011;4957;51.412;6.724;2022-11-18T10:26:37;15.67;;;5.07;;
9836;SDS011;4957;51.412;6.724;2022-11-18T10:29:05;15.57;;;5.40;;
9836;SDS011;4957;51.412;6.724;2022-11-18T10:31:37;10.23;;;4.93;;
9836;SDS011;4957;51.412;6.724;2022-11-18T10:34:25;16.37;;;5.27;;
9836;SDS011;4957;51.412;6.724;2022-11-18T10:37:01;17.33;;;6.10;;
9836;SDS011;4957;51.412;6.724;2022-11-18T10:39:29;13.90;;;5.80;;
9836;SDS011;4957;51.412;6.724;2022-11-18T10:42:02;17.13;;;5.87;;
9836;SDS011;4957;51.412;6.724;2022-11-18T10:44:31;20.33;;;6.40;;
9836;SDS011;4957;51.412;6.724;2022-11-18T10:47:23;13.50;;;5.27;;
9836;SDS011;4957;51.412;6.724;2022-11-18T10:49:57;12.43;;;4.57;;
9836;SDS011;4957;51.412;6.724;2022-11-18T10:52:50;20.50;;;4.70;;
9836;SDS011;4957;51.412;6.724;2022-11-18T10:55:18;13.43;;;4.70;;
9836;SDS011;4957;51.412;6.724;2022-11-18T10:57:46;11.83;;;4.10;;
9836;SDS011;4957;51.412;6.724;2022-11-18T11:02:58;8.87;;;4.30;;
9836;SDS011;4957;51.412;6.724;2022-11-18T11:05:24;8.67;;;4.43;;
9836;SDS011;4957;51.412;6.724;2022-11-18T11:08:01;12.30;;;5.07;;
9836;SDS011;4957;51.412;6.724;2022-11-18T11:10:52;12.33;;;4.77;;
9836;SDS011;4957;51.412;6.724;2022-11-18T11:13:19;13.17;;;4.17;;
9836;SDS011;4957;51.412;6.724;2022-11-18T11:15:47;11.43;;;3.97;;
9836;SDS011;4957;51.412;6.724;2022-11-18T11:18:27;15.47;;;4.37;;
9836;SDS011;4957;51.412;6.724;2022-11-18T11:21:17;16.80;;;6.27;;
9836;SDS011;4957;51.412;6.724;2022-11-18T11:23:44;10.07;;;3.63;;
9836;SDS011;4957;51.412;6.724;2022-11-18T11:35:27;7.63;;;3.03;;
9836;SDS011;4957;51.412;6.724;2022-11-18T11:37:59;9.87;;;2.73;;
9836;SDS011;4957;51.412;6.724;2022-11-18T11:43:45;9.10;;;2.90;;
9836;SDS011;4957;51.412;6.724;2022-11-18T11:46:17;6.27;;;3.03;;
9836;SDS011;4957;51.412;6.724;2022-11-18T11:51:39;9.93;;;2.57;;
9836;SDS011;4957;51.412;6.724;2022-11-18T11:54:23;6.57;;;2.10;;
9836;SDS011;4957;51.412;6.724;2022-11-18T11:56:58;7.00;;;2.20;;
9836;SDS011;4957;51.412;6.724;2022-11-18T12:05:31;4.03;;;2.13;;
9836;SDS011;4957;51.412;6.724;2022-11-18T12:10:51;8.17;;;2.60;;
9836;SDS011;4957;51.412;6.724;2022-11-18T12:19:02;7.40;;;2.10;;
9836;SDS011;4957;51.412;6.724;2022-11-18T12:27:02;5.47;;;2.23;;
9836;SDS011;4957;51.412;6.724;2022-11-18T12:29:52;7.03;;;2.23;;
9836;SDS011;4957;51.412;6.724;2022-11-18T12:37:56;5.93;;;2.10;;
9836;SDS011;4957;51.412;6.724;2022-11-18T12:40:36;8.97;;;2.60;;
9836;SDS011;4957;51.412;6.724;2022-11-18T12:43:05;9.23;;;2.87;;
9836;SDS011;4957;51.412;6.724;2022-11-18T12:46:08;10.77;;;3.03;;
9836;SDS011;4957;51.412;6.724;2022-11-18T12:48:35;8.37;;;2.17;;
9836;SDS011;4957;51.412;6.724;2022-11-18T12:53:54;3.83;;;2.00;;
9836;SDS011;4957;51.412;6.724;2022-11-18T13:01:17;8.13;;;2.20;;
9836;SDS011;4957;51.412;6.724;2022-11-18T13:03:44;8.13;;;2.80;;
9836;SDS011;4957;51.412;6.724;2022-11-18T13:08:41;7.23;;;1.90;;
9836;SDS011;4957;51.412;6.724;2022-11-18T13:11:08;6.77;;;1.80;;
9836;SDS011;4957;51.412;6.724;2022-11-18T13:13:57;8.50;;;2.63;;
9836;SDS011;4957;51.412;6.724;2022-11-18T13:16:42;9.73;;;2.73;;
9836;SDS011;4957;51.412;6.724;2022-11-18T13:19:27;7.70;;;1.77;;
9836;SDS011;4957;51.412;6.724;2022-11-18T13:21:54;6.80;;;1.80;;
9836;SDS011;4957;51.412;6.724;2022-11-18T13:24:44;9.17;;;1.70;;
9836;SDS011;4957;51.412;6.724;2022-11-18T13:30:13;7.67;;;1.93;;
9836;SDS011;4957;51.412;6.724;2022-11-18T13:32:43;6.80;;;2.03;;
9836;SDS011;4957;51.412;6.724;2022-11-18T13:35:17;8.63;;;2.57;;
9836;SDS011;4957;51.412;6.724;2022-11-18T13:37:56;4.53;;;1.80;;
9836;SDS011;4957;51.412;6.724;2022-11-18T13:40:26;7.23;;;2.30;;
9836;SDS011;4957;51.412;6.724;2022-11-18T13:43:02;13.50;;;3.00;;
9836;SDS011;4957;51.412;6.724;2022-11-18T13:45:28;8.10;;;2.27;;
9836;SDS011;4957;51.412;6.724;2022-11-18T13:47:59;10.03;;;3.97;;
9836;SDS011;4957;51.412;6.724;2022-11-18T13:50:34;14.43;;;5.07;;
9836;SDS011;4957;51.412;6.724;2022-11-18T13:55:35;14.50;;;5.00;;
9836;SDS011;4957;51.412;6.724;2022-11-18T14:00:54;9.47;;;2.57;;
9836;SDS011;4957;51.412;6.724;2022-11-18T14:03:34;4.17;;;2.23;;
9836;SDS011;4957;51.412;6.724;2022-11-18T14:06:37;9.60;;;2.77;;
9836;SDS011;4957;51.412;6.724;2022-11-18T14:14:05;4.17;;;2.00;;
9836;SDS011;4957;51.412;6.724;2022-11-18T14:19:00;5.53;;;2.27;;
9836;SDS011;4957;51.412;6.724;2022-11-18T14:23:53;6.70;;;2.50;;
9836;SDS011;4957;51.412;6.724;2022-11-18T14:26:29;5.67;;;2.10;;
9836;SDS011;4957;51.412;6.724;2022-11-18T14:29:01;12.33;;;2.60;;
9836;SDS011;4957;51.412;6.724;2022-11-18T14:34:38;8.80;;;3.00;;
9836;SDS011;4957;51.412;6.724;2022-11-18T14:37:11;9.83;;;2.43;;
9836;SDS011;4957;51.412;6.724;2022-11-18T14:39:39;8.30;;;3.30;;
9836;SDS011;4957;51.412;6.724;2022-11-18T14:42:08;8.57;;;3.30;;
9836;SDS011;4957;51.412;6.724;2022-11-18T14:44:36;8.43;;;3.03;;
9836;SDS011;4957;51.412;6.724;2022-11-18T14:47:03;5.17;;;2.23;;
9836;SDS011;4957;51.412;6.724;2022-11-18T14:49:35;7.53;;;2.57;;
9836;SDS011;4957;51.412;6.724;2022-11-18T14:52:01;7.63;;;2.40;;
9836;SDS011;4957;51.412;6.724;2022-11-18T14:54:28;7.67;;;2.47;;
9836;SDS011;4957;51.412;6.724;2022-11-18T14:56:56;7.03;;;2.47;;
9836;SDS011;4957;51.412;6.724;2022-11-18T14:59:24;4.23;;;2.47;;
9836;SDS011;4957;51.412;6.724;2022-11-18T15:01:50;8.70;;;2.70;;
9836;SDS011;4957;51.412;6.724;2022-11-18T15:04:15;5.07;;;2.47;;
9836;SDS011;4957;51.412;6.724;2022-11-18T15:06:41;7.63;;;2.90;;
9836;SDS011;4957;51.412;6.724;2022-11-18T15:09:07;6.63;;;2.63;;
9836;SDS011;4957;51.412;6.724;2022-11-18T15:11:33;6.63;;;2.73;;
9836;SDS011;4957;51.412;6.724;2022-11-18T15:14:00;8.10;;;2.37;;
9836;SDS011;4957;51.412;6.724;2022-11-18T15:16:27;3.77;;;2.60;;
9836;SDS011;4957;51.412;6.724;2022-11-18T15:18:55;6.30;;;3.10;;
9836;SDS011;4957;51.412;6.724;2022-11-18T15:21:22;7.37;;;2.97;;
9836;SDS011;4957;51.412;6.724;2022-11-18T15:23:48;10.67;;;2.73;;
9836;SDS011;4957;51.412;6.724;2022-11-18T15:26:24;6.40;;;2.83;;
9836;SDS011;4957;51.412;6.724;2022-11-18T15:28:53;5.50;;;2.80;;
9836;SDS011;4957;51.412;6.724;2022-11-18T15:31:21;8.83;;;3.20;;
9836;SDS011;4957;51.412;6.724;2022-11-18T15:33:48;9.83;;;3.03;;
9836;SDS011;4957;51.412;6.724;2022-11-18T15:36:16;7.63;;;3.27;;
9836;SDS011;4957;51.412;6.724;2022-11-18T15:38:42;6.47;;;2.70;;
9836;SDS011;4957;51.412;6.724;2022-11-18T15:41:15;7.70;;;2.87;;
9836;SDS011;4957;51.412;6.724;2022-11-18T15:43:41;8.17;;;3.23;;
9836;SDS011;4957;51.412;6.724;2022-11-18T15:46:07;4.73;;;2.80;;
9836;SDS011;4957;51.412;6.724;2022-11-18T15:48:33;6.67;;;3.00;;
9836;SDS011;4957;51.412;6.724;2022-11-18T15:50:59;6.53;;;2.70;;
9836;SDS011;4957;51.412;6.724;2022-11-18T15:53:26;5.93;;;2.77;;
9836;SDS011;4957;51.412;6.724;2022-11-18T15:55:51;7.07;;;3.03;;
9836;SDS011;4957;51.412;6.724;2022-11-18T15:58:17;6.17;;;3.20;;
9836;SDS011;4957;51.412;6.724;2022-11-18T16:00:42;4.50;;;2.50;;
9836;SDS011;4957;51.412;6.724;2022-11-18T16:03:08;5.70;;;2.60;;
9836;SDS011;4957;51.412;6.724;2022-11-18T16:05:34;8.30;;;3.10;;
9836;SDS011;4957;51.412;6.724;2022-11-18T16:07:59;9.03;;;3.27;;
9836;SDS011;4957;51.412;6.724;2022-11-18T16:10:25;7.37;;;3.20;;
9836;SDS011;4957;51.412;6.724;2022-11-18T16:13:09;12.63;;;4.37;;
9836;SDS011;4957;51.412;6.724;2022-11-18T16:15:34;9.03;;;2.83;;
9836;SDS011;4957;51.412;6.724;2022-11-18T16:18:12;4.60;;;2.97;;
9836;SDS011;4957;51.412;6.724;2022-11-18T16:20:40;6.37;;;3.20;;
9836;SDS011;4957;51.412;6.724;2022-11-18T16:23:05;8.43;;;3.93;;
9836;SDS011;4957;51.412;6.724;2022-11-18T16:25:31;7.53;;;3.80;;
9836;SDS011;4957;51.412;6.724;2022-11-18T16:27:57;8.57;;;4.13;;
9836;SDS011;4957;51.412;6.724;2022-11-18T16:30:22;15.20;;;4.23;;
9836;SDS011;4957;51.412;6.724;2022-11-18T16:33:07;12.27;;;4.20;;
9836;SDS011;4957;51.412;6.724;2022-11-18T16:35:32;5.77;;;3.53;;
9836;SDS011;4957;51.412;6.724;2022-11-18T16:37:58;9.00;;;3.87;;
9836;SDS011;4957;51.412;6.724;2022-11-18T16:40:24;8.50;;;4.57;;
9836;SDS011;4957;51.412;6.724;2022-11-18T16:42:49;9.17;;;5.33;;
9836;SDS011;4957;51.412;6.724;2022-11-18T16:45:16;9.47;;;4.90;;
9836;SDS011;4957;51.412;6.724;2022-11-18T16:47:42;10.10;;;4.53;;
9836;SDS011;4957;51.412;6.724;2022-11-18T16:50:08;9.77;;;4.20;;
9836;SDS011;4957;51.412;6.724;2022-11-18T16:52:34;12.63;;;4.80;;
9836;SDS011;4957;51.412;6.724;2022-11-18T16:55:00;11.17;;;4.90;;
9836;SDS011;4957;51.412;6.724;2022-11-18T16:57:26;9.13;;;5.30;;
9836;SDS011;4957;51.412;6.724;2022-11-18T16:59:51;13.07;;;5.40;;
9836;SDS011;4957;51.412;6.724;2022-11-18T17:02:17;10.33;;;5.50;;
9836;SDS011;4957;51.412;6.724;2022-11-18T17:04:46;17.97;;;9.00;;
9836;SDS011;4957;51.412;6.724;2022-11-18T17:07:12;31.43;;;13.47;;
9836;SDS011;4957;51.412;6.724;2022-11-18T17:09:37;22.37;;;12.97;;
9836;SDS011;4957;51.412;6.724;2022-11-18T17:12:03;18.43;;;9.63;;
9836;SDS011;4957;51.412;6.724;2022-11-18T17:14:29;17.47;;;8.10;;